EW0158 Weather Reports


Display with metric or nautical units.
time (UTC)temp
F
wind
direction
speed
MPH
gust
MPH
rain 1hr
in
rain 24hr
in
rain mn
in
humidity
%
barometer
mb
20200809164516 84 202 11.0 20.0 0.00 0.00 0.00 61 1019.8
20200809163516 84 157 11.0 19.0 0.00 0.00 0.00 62 1019.8
20200809162516 83 180 7.0 15.0 0.00 0.00 0.00 64 1019.6
20200809161517 82 180 10.0 20.0 0.00 0.00 0.00 65 1019.9
20200809160516 82 180 11.0 24.0 0.00 0.00 0.00 64 1019.9
20200809155517 81 180 9.0 17.0 0.00 0.00 0.00 67 1019.8
20200809154516 81 202 9.0 19.0 0.00 0.00 0.00 68 1019.8
20200809153516 80 202 11.0 19.0 0.00 0.00 0.00 70 1019.8
20200809152516 80 180 10.0 15.0 0.00 0.00 0.00 72 1019.9
20200809151518 79 202 10.0 18.0 0.00 0.00 0.00 73 1019.8
20200809150516 79 202 11.0 17.0 0.00 0.00 0.00 74 1020.0
20200809145516 78 202 11.0 20.0 0.00 0.00 0.00 75 1019.7
20200809144516 77 180 11.0 19.0 0.00 0.00 0.00 77 1019.8
20200809143516 77 202 11.0 17.0 0.00 0.00 0.00 78 1019.8
20200809142516 77 202 10.0 20.0 0.00 0.00 0.00 79 1019.8
20200809141517 76 180 8.0 14.0 0.00 0.00 0.00 81 1019.8
20200809140517 75 202 10.0 17.0 0.00 0.00 0.00 82 1019.6
20200809135516 75 202 10.0 17.0 0.00 0.00 0.00 84 1019.5
20200809134521 74 180 7.0 13.0 0.00 0.00 0.00 85 1019.3
20200809133516 73 180 8.0 14.0 0.00 0.00 0.00 87 1019.3
20200809132521 72 180 8.0 15.0 0.00 0.00 0.00 89 1019.2
20200809131516 72 180 7.0 14.0 0.00 0.00 0.00 90 1019.0
20200809130516 71 180 7.0 12.0 0.00 0.00 0.00 91 1019.1
20200809125516 71 202 8.0 16.0 0.00 0.00 0.00 92 1019.0
20200809124516 71 180 7.0 13.0 0.00 0.00 0.00 92 1018.8
20200809123526 71 180 6.0 10.0 0.00 0.00 0.00 92 1019.0
20200809122516 71 180 5.0 13.0 0.00 0.00 0.00 93 1018.9
20200809121516 71 180 6.0 12.0 0.00 0.00 0.00 92 1018.7
20200809120518 71 180 6.0 12.0 0.00 0.00 0.00 92 1018.6
20200809115518 71 180 6.0 11.0 0.00 0.00 0.00 92 1018.8
20200809114516 71 180 5.0 10.0 0.00 0.00 0.00 92 1018.6
20200809113516 71 180 4.0 9.0 0.00 0.00 0.00 91 1018.6
20200809112516 71 180 5.0 12.0 0.00 0.00 0.00 91 1018.7
20200809111516 72 180 7.0 13.0 0.00 0.00 0.00 91 1018.6
20200809110517 72 180 7.0 15.0 0.00 0.00 0.00 90 1018.5
20200809105516 72 180 5.0 10.0 0.00 0.00 0.00 90 1018.6
20200809104517 73 180 7.0 12.0 0.00 0.00 0.00 89 1018.5
20200809103516 73 180 8.0 13.0 0.00 0.00 0.00 89 1018.5
20200809102521 73 180 8.0 14.0 0.00 0.00 0.00 89 1018.5
20200809101517 73 180 9.0 18.0 0.00 0.00 0.00 89 1018.6
20200809100516 73 180 7.0 18.0 0.00 0.00 0.00 89 1018.6
20200809095516 73 180 7.0 11.0 0.00 0.00 0.00 89 1018.5
20200809094519 73 180 9.0 15.0 0.00 0.00 0.00 89 1018.4
20200809093517 73 180 8.0 16.0 0.00 0.00 0.00 88 1018.3
20200809092516 73 180 6.0 12.0 0.00 0.00 0.00 88 1018.4
20200809091516 73 180 9.0 14.0 0.00 0.00 0.00 88 1018.5
20200809090516 73 180 9.0 14.0 0.00 0.00 0.00 87 1018.7
20200809085516 73 180 8.0 13.0 0.00 0.00 0.00 87 1018.6
20200809084516 74 180 7.0 14.0 0.00 0.00 0.00 87 1018.7
20200809083516 74 180 8.0 16.0 0.00 0.00 0.00 86 1018.9
20200809082519 74 180 7.0 12.0 0.00 0.00 0.00 86 1018.8
20200809081516 74 202 8.0 12.0 0.00 0.00 0.00 85 1018.8
20200809080517 74 180 9.0 18.0 0.00 0.00 0.00 85 1018.8
20200809075516 74 180 7.0 13.0 0.00 0.00 0.00 84 1018.9
20200809074518 74 180 9.0 17.0 0.00 0.00 0.00 83 1019.0
20200809073516 74 180 8.0 13.0 0.00 0.00 0.00 82 1019.1
20200809072517 75 180 8.0 15.0 0.00 0.00 0.00 81 1019.0
20200809071516 75 180 9.0 17.0 0.00 0.00 0.00 80 1019.1
20200809070517 75 180 9.0 18.0 0.00 0.00 0.00 79 1019.1
20200809065518 75 180 6.0 13.0 0.00 0.00 0.00 78 1019.1
20200809064517 76 180 8.0 16.0 0.00 0.00 0.00 77 1019.0
20200809063517 76 180 9.0 17.0 0.00 0.00 0.00 76 1019.0
20200809062516 77 180 8.0 15.0 0.00 0.00 0.00 76 1019.1
20200809061518 77 180 8.0 14.0 0.00 0.00 0.00 75 1019.2
20200809060536 77 180 8.0 13.0 0.00 0.00 0.00 75 1019.3
20200809055517 77 180 6.0 12.0 0.00 0.00 0.00 74 1019.2
20200809054516 78 157 6.0 13.0 0.00 0.00 0.00 73 1019.0
20200809053518 78 180 6.0 13.0 0.00 0.00 0.00 73 1019.3
20200809052516 78 180 7.0 13.0 0.00 0.00 0.00 72 1019.3
20200809051522 79 180 6.0 13.0 0.00 0.00 0.00 71 1019.0
20200809050516 79 180 7.0 13.0 0.00 0.00 0.00 70 1018.9
20200809045516 79 180 5.0 12.0 0.00 0.00 0.00 69 1019.0
20200809044521 79 180 7.0 11.0 0.00 0.00 0.00 69 1019.1
20200809043525 80 180 7.0 11.0 0.00 0.00 0.00 68 1018.9
20200809042541 80 180 6.0 14.0 0.00 0.00 0.00 68 1018.7
20200809041516 80 180 5.0 11.0 0.00 0.00 0.00 67 1018.7
20200809040519 81 180 6.0 14.0 0.00 0.00 0.00 66 1018.8
20200809035516 81 180 6.0 13.0 0.00 0.00 0.00 65 1018.8
20200809034516 81 180 6.0 11.0 0.00 0.00 0.00 65 1018.7
20200809033516 81 180 6.0 11.0 0.00 0.00 0.00 64 1018.5
20200809032516 82 180 5.0 7.0 0.00 0.00 0.00 62 1018.3
20200809031516 82 180 6.0 11.0 0.00 0.00 0.00 61 1018.2
20200809030517 82 180 5.0 10.0 0.00 0.00 0.00 59 1018.3
20200809025516 82 180 5.0 10.0 0.00 0.00 0.00 58 1018.0
20200809024518 82 180 2.0 5.0 0.00 0.00 0.00 56 1017.5
20200809023516 83 157 2.0 4.0 0.00 0.00 0.00 56 1017.6
20200809022516 83 135 3.0 4.0 0.00 0.00 0.00 55 1017.7
20200809021521 84 157 3.0 6.0 0.00 0.00 0.00 54 1017.6
20200809020516 84 157 3.0 6.0 0.00 0.00 0.00 53 1017.3
20200809015516 85 157 4.0 6.0 0.00 0.00 0.00 53 1017.2
20200809014519 85 180 4.0 7.0 0.00 0.00 0.00 52 1017.2
20200809013516 86 157 4.0 9.0 0.00 0.00 0.00 51 1017.2
20200809012517 86 180 4.0 9.0 0.00 0.00 0.00 50 1017.2
20200809011516 87 180 5.0 8.0 0.00 0.00 0.00 49 1017.0
20200809010516 87 180 6.0 13.0 0.00 0.00 0.00 48 1017.0
20200809005516 88 180 5.0 14.0 0.00 0.00 0.00 48 1017.0
20200809004516 88 180 6.0 13.0 0.00 0.00 0.00 47 1016.8
20200809003516 88 157 6.0 12.0 0.00 0.00 0.00 47 1017.0
20200809002521 89 180 6.0 17.0 0.00 0.00 0.00 47 1016.9
20200809001517 89 157 7.0 13.0 0.00 0.00 0.00 46 1016.9
20200809000516 90 180 7.0 12.0 0.00 0.00 0.00 46 1017.0
20200808235517 90 202 8.0 14.0 0.00 0.00 0.00 46 1017.0
20200808234516 90 135 6.0 14.0 0.00 0.00 0.00 46 1017.0
20200808233517 89 180 6.0 13.0 0.00 0.00 0.00 46 1017.0
20200808232516 89 180 7.0 13.0 0.00 0.00 0.00 47 1017.1
20200808231518 89 180 6.0 15.0 0.00 0.00 0.00 46 1017.0
20200808230516 90 157 6.0 11.0 0.00 0.00 0.00 45 1017.0
20200808225516 90 157 6.0 12.0 0.00 0.00 0.00 44 1017.2
20200808224524 91 135 8.0 16.0 0.00 0.00 0.00 44 1017.1
20200808223524 91 180 5.0 12.0 0.00 0.00 0.00 44 1017.2
20200808222517 90 135 6.0 12.0 0.00 0.00 0.00 44 1017.2
20200808221516 92 135 6.0 12.0 0.00 0.00 0.00 43 1017.3
20200808220517 92 180 8.0 15.0 0.00 0.00 0.00 43 1017.4
20200808215517 91 135 6.0 13.0 0.00 0.00 0.00 44 1017.3
20200808214517 90 202 6.0 13.0 0.00 0.00 0.00 44 1017.4
20200808213518 90 202 7.0 14.0 0.00 0.00 0.00 46 1017.4
20200808212516 90 180 7.0 14.0 0.00 0.00 0.00 45 1017.3
20200808211521 90 180 6.0 13.0 0.00 0.00 0.00 45 1017.7
20200808210518 90 180 9.0 16.0 0.00 0.00 0.00 46 1017.7
20200808205521 90 135 6.0 13.0 0.00 0.00 0.00 46 1018.0
20200808204519 90 180 7.0 14.0 0.00 0.00 0.00 46 1017.9
20200808203517 91 157 7.0 15.0 0.00 0.00 0.00 46 1018.2
20200808202522 91 202 8.0 18.0 0.00 0.00 0.00 46 1018.3
20200808201521 89 157 6.0 11.0 0.00 0.00 0.00 49 1018.3
20200808200522 89 180 7.0 13.0 0.00 0.00 0.00 48 1018.4
20200808195521 89 180 9.0 14.0 0.00 0.00 0.00 49 1018.5
20200808194518 89 180 9.0 16.0 0.00 0.00 0.00 48 1018.6
20200808193521 90 180 7.0 17.0 0.00 0.00 0.00 46 1018.5
20200808192518 89 135 8.0 14.0 0.00 0.00 0.00 49 1018.8
20200808191517 90 180 9.0 16.0 0.00 0.00 0.00 49 1018.8
20200808190521 88 180 7.0 15.0 0.00 0.00 0.00 50 1018.9
20200808185517 88 202 7.0 14.0 0.00 0.00 0.00 51 1018.8
20200808184533 88 202 11.0 19.0 0.00 0.00 0.00 52 1019.0
20200808183516 88 180 10.0 18.0 0.00 0.00 0.00 52 1019.1
20200808182517 88 202 9.0 17.0 0.00 0.00 0.00 52 1019.2
20200808181517 87 202 7.0 11.0 0.00 0.00 0.00 54 1019.5
20200808180516 87 202 8.0 22.0 0.00 0.00 0.00 53 1019.5
20200808175520 87 202 8.0 17.0 0.00 0.00 0.00 54 1019.4
20200808174519 86 202 9.0 21.0 0.00 0.00 0.00 55 1019.8
20200808173516 85 180 9.0 14.0 0.00 0.00 0.00 60 1019.8
20200808172517 85 202 9.0 17.0 0.00 0.00 0.00 60 1019.9
20200808171516 84 202 8.0 17.0 0.00 0.00 0.00 61 1020.0
20200808170516 83 180 9.0 17.0 0.00 0.00 0.00 63 1020.0
20200808165517 83 202 8.0 14.0 0.00 0.00 0.00 62 1020.1